sensor_id;sensor_type;location;lat;lon;timestamp;temperature;humidity
19090;DHT22;9677;50.656;13.064;2022-11-27T00:02:22;6.50;63.80
19090;DHT22;9677;50.656;13.064;2022-11-27T00:04:51;6.50;63.90
19090;DHT22;9677;50.656;13.064;2022-11-27T00:07:20;6.50;64.00
19090;DHT22;9677;50.656;13.064;2022-11-27T00:09:49;6.50;64.10
19090;DHT22;9677;50.656;13.064;2022-11-27T00:12:17;6.40;64.10
19090;DHT22;9677;50.656;13.064;2022-11-27T00:14:48;6.50;64.20
19090;DHT22;9677;50.656;13.064;2022-11-27T00:17:21;6.40;64.30
19090;DHT22;9677;50.656;13.064;2022-11-27T00:19:50;6.50;64.40
19090;DHT22;9677;50.656;13.064;2022-11-27T00:22:18;6.40;64.30
19090;DHT22;9677;50.656;13.064;2022-11-27T00:24:47;6.40;64.40
19090;DHT22;9677;50.656;13.064;2022-11-27T00:27:15;6.40;64.40
19090;DHT22;9677;50.656;13.064;2022-11-27T00:29:44;6.40;64.40
19090;DHT22;9677;50.656;13.064;2022-11-27T00:32:14;6.50;64.50
19090;DHT22;9677;50.656;13.064;2022-11-27T00:34:43;6.50;64.50
19090;DHT22;9677;50.656;13.064;2022-11-27T00:37:11;6.50;64.50
19090;DHT22;9677;50.656;13.064;2022-11-27T00:39:40;6.50;64.50
19090;DHT22;9677;50.656;13.064;2022-11-27T00:42:09;6.50;64.40
19090;DHT22;9677;50.656;13.064;2022-11-27T00:44:38;6.50;64.40
19090;DHT22;9677;50.656;13.064;2022-11-27T00:47:06;6.50;64.30
19090;DHT22;9677;50.656;13.064;2022-11-27T00:49:36;6.50;64.40
19090;DHT22;9677;50.656;13.064;2022-11-27T00:52:05;6.50;64.20
19090;DHT22;9677;50.656;13.064;2022-11-27T00:54:34;6.40;64.20
19090;DHT22;9677;50.656;13.064;2022-11-27T00:57:03;6.40;64.20
19090;DHT22;9677;50.656;13.064;2022-11-27T00:59:32;6.40;64.20
19090;DHT22;9677;50.656;13.064;2022-11-27T01:02:01;6.40;64.20
19090;DHT22;9677;50.656;13.064;2022-11-27T01:04:29;6.40;64.10
19090;DHT22;9677;50.656;13.064;2022-11-27T01:06:59;6.40;64.10
19090;DHT22;9677;50.656;13.064;2022-11-27T01:09:28;6.40;64.10
19090;DHT22;9677;50.656;13.064;2022-11-27T01:11:57;6.40;64.10
19090;DHT22;9677;50.656;13.064;2022-11-27T01:14:25;6.40;64.10
19090;DHT22;9677;50.656;13.064;2022-11-27T01:16:54;6.40;64.10
19090;DHT22;9677;50.656;13.064;2022-11-27T01:19:22;6.30;64.10
19090;DHT22;9677;50.656;13.064;2022-11-27T01:21:51;6.30;64.10
19090;DHT22;9677;50.656;13.064;2022-11-27T01:24:21;6.30;64.10
19090;DHT22;9677;50.656;13.064;2022-11-27T01:26:50;6.30;64.00
19090;DHT22;9677;50.656;13.064;2022-11-27T01:29:18;6.20;63.90
19090;DHT22;9677;50.656;13.064;2022-11-27T01:31:47;6.20;64.70
19090;DHT22;9677;50.656;13.064;2022-11-27T01:34:17;6.20;64.00
19090;DHT22;9677;50.656;13.064;2022-11-27T01:36:45;6.20;64.10
19090;DHT22;9677;50.656;13.064;2022-11-27T01:39:16;6.20;64.10
19090;DHT22;9677;50.656;13.064;2022-11-27T01:41:48;6.30;64.30
19090;DHT22;9677;50.656;13.064;2022-11-27T01:44:46;6.20;64.30
19090;DHT22;9677;50.656;13.064;2022-11-27T01:47:23;6.20;64.40
19090;DHT22;9677;50.656;13.064;2022-11-27T01:49:59;6.40;64.50
19090;DHT22;9677;50.656;13.064;2022-11-27T01:52:43;6.10;64.30
19090;DHT22;9677;50.656;13.064;2022-11-27T01:55:19;6.10;64.30
19090;DHT22;9677;50.656;13.064;2022-11-27T01:57:55;6.10;64.30
19090;DHT22;9677;50.656;13.064;2022-11-27T02:00:26;6.10;64.40
19090;DHT22;9677;50.656;13.064;2022-11-27T02:02:55;6.10;64.30
19090;DHT22;9677;50.656;13.064;2022-11-27T02:05:26;6.10;65.00
19090;DHT22;9677;50.656;13.064;2022-11-27T02:07:57;6.10;64.20
19090;DHT22;9677;50.656;13.064;2022-11-27T02:10:37;6.10;64.10
19090;DHT22;9677;50.656;13.064;2022-11-27T02:13:17;6.10;64.10
19090;DHT22;9677;50.656;13.064;2022-11-27T02:15:58;6.00;64.00
19090;DHT22;9677;50.656;13.064;2022-11-27T02:18:36;6.20;64.10
19090;DHT22;9677;50.656;13.064;2022-11-27T02:21:12;6.00;64.00
19090;DHT22;9677;50.656;13.064;2022-11-27T02:24:12;6.00;63.90
19090;DHT22;9677;50.656;13.064;2022-11-27T02:27:21;5.90;63.90
19090;DHT22;9677;50.656;13.064;2022-11-27T02:30:04;5.90;63.90
19090;DHT22;9677;50.656;13.064;2022-11-27T02:32:37;5.90;63.90
19090;DHT22;9677;50.656;13.064;2022-11-27T02:35:13;5.90;63.90
19090;DHT22;9677;50.656;13.064;2022-11-27T02:37:47;5.80;63.80
19090;DHT22;9677;50.656;13.064;2022-11-27T02:40:20;5.80;63.80
19090;DHT22;9677;50.656;13.064;2022-11-27T02:42:56;6.00;64.00
19090;DHT22;9677;50.656;13.064;2022-11-27T02:45:32;5.80;63.80
19090;DHT22;9677;50.656;13.064;2022-11-27T02:48:03;5.70;63.80
19090;DHT22;9677;50.656;13.064;2022-11-27T02:50:34;5.70;63.90
19090;DHT22;9677;50.656;13.064;2022-11-27T02:53:07;5.70;63.90
19090;DHT22;9677;50.656;13.064;2022-11-27T02:55:40;5.60;63.80
19090;DHT22;9677;50.656;13.064;2022-11-27T02:58:14;5.70;63.90
19090;DHT22;9677;50.656;13.064;2022-11-27T03:00:49;5.60;63.90
19090;DHT22;9677;50.656;13.064;2022-11-27T03:03:20;5.60;63.90
19090;DHT22;9677;50.656;13.064;2022-11-27T03:05:54;5.60;64.00
19090;DHT22;9677;50.656;13.064;2022-11-27T03:08:29;5.60;64.00
19090;DHT22;9677;50.656;13.064;2022-11-27T03:11:03;5.50;64.00
19090;DHT22;9677;50.656;13.064;2022-11-27T03:13:35;5.50;64.00
19090;DHT22;9677;50.656;13.064;2022-11-27T03:16:10;5.50;64.00
19090;DHT22;9677;50.656;13.064;2022-11-27T03:18:49;5.50;64.00
19090;DHT22;9677;50.656;13.064;2022-11-27T03:21:27;5.50;64.00
19090;DHT22;9677;50.656;13.064;2022-11-27T03:23:59;5.50;64.00
19090;DHT22;9677;50.656;13.064;2022-11-27T03:26:29;5.50;64.00
19090;DHT22;9677;50.656;13.064;2022-11-27T03:28:59;5.60;64.10
19090;DHT22;9677;50.656;13.064;2022-11-27T03:31:31;5.50;64.10
19090;DHT22;9677;50.656;13.064;2022-11-27T03:34:00;5.40;64.10
19090;DHT22;9677;50.656;13.064;2022-11-27T03:36:29;5.40;64.20
19090;DHT22;9677;50.656;13.064;2022-11-27T03:38:57;5.40;64.20
19090;DHT22;9677;50.656;13.064;2022-11-27T03:41:35;5.40;64.20
19090;DHT22;9677;50.656;13.064;2022-11-27T03:44:15;5.50;64.30
19090;DHT22;9677;50.656;13.064;2022-11-27T03:47:04;5.40;64.30
19090;DHT22;9677;50.656;13.064;2022-11-27T03:49:43;5.40;64.30
19090;DHT22;9677;50.656;13.064;2022-11-27T03:52:25;5.40;64.20
19090;DHT22;9677;50.656;13.064;2022-11-27T03:55:02;5.40;64.20
19090;DHT22;9677;50.656;13.064;2022-11-27T03:57:34;5.30;64.10
19090;DHT22;9677;50.656;13.064;2022-11-27T04:00:10;5.40;64.10
19090;DHT22;9677;50.656;13.064;2022-11-27T04:02:44;5.30;64.10
19090;DHT22;9677;50.656;13.064;2022-11-27T04:05:15;5.30;64.10
19090;DHT22;9677;50.656;13.064;2022-11-27T04:07:44;5.30;64.10
19090;DHT22;9677;50.656;13.064;2022-11-27T04:10:13;5.30;64.10
19090;DHT22;9677;50.656;13.064;2022-11-27T04:12:42;5.30;64.10
19090;DHT22;9677;50.656;13.064;2022-11-27T04:15:11;5.20;64.00
19090;DHT22;9677;50.656;13.064;2022-11-27T04:17:41;5.20;64.10
19090;DHT22;9677;50.656;13.064;2022-11-27T04:20:12;5.20;64.10
19090;DHT22;9677;50.656;13.064;2022-11-27T04:22:41;5.20;64.20
19090;DHT22;9677;50.656;13.064;2022-11-27T04:25:10;5.20;64.00
19090;DHT22;9677;50.656;13.064;2022-11-27T04:27:38;5.20;64.10
19090;DHT22;9677;50.656;13.064;2022-11-27T04:30:08;5.20;64.00
19090;DHT22;9677;50.656;13.064;2022-11-27T04:32:37;5.20;64.10
19090;DHT22;9677;50.656;13.064;2022-11-27T04:35:08;5.20;64.10
19090;DHT22;9677;50.656;13.064;2022-11-27T04:37:37;5.10;64.10
19090;DHT22;9677;50.656;13.064;2022-11-27T04:40:06;5.10;64.00
19090;DHT22;9677;50.656;13.064;2022-11-27T04:42:36;5.10;64.00
19090;DHT22;9677;50.656;13.064;2022-11-27T04:45:05;5.10;64.00
19090;DHT22;9677;50.656;13.064;2022-11-27T04:47:34;5.10;64.10
19090;DHT22;9677;50.656;13.064;2022-11-27T04:50:04;5.10;64.10
19090;DHT22;9677;50.656;13.064;2022-11-27T04:52:35;5.00;64.10
19090;DHT22;9677;50.656;13.064;2022-11-27T04:55:04;5.10;64.10
19090;DHT22;9677;50.656;13.064;2022-11-27T04:57:33;5.00;64.10
19090;DHT22;9677;50.656;13.064;2022-11-27T05:00:03;5.00;64.10
19090;DHT22;9677;50.656;13.064;2022-11-27T05:02:33;5.00;64.10
19090;DHT22;9677;50.656;13.064;2022-11-27T05:05:02;5.00;64.10
19090;DHT22;9677;50.656;13.064;2022-11-27T05:07:31;5.00;64.00
19090;DHT22;9677;50.656;13.064;2022-11-27T05:10:02;4.90;63.90
19090;DHT22;9677;50.656;13.064;2022-11-27T05:12:32;4.90;63.90
19090;DHT22;9677;50.656;13.064;2022-11-27T05:15:00;4.90;63.90
19090;DHT22;9677;50.656;13.064;2022-11-27T05:17:30;4.90;63.90
19090;DHT22;9677;50.656;13.064;2022-11-27T05:19:59;5.00;64.00
19090;DHT22;9677;50.656;13.064;2022-11-27T05:22:28;4.80;63.90
19090;DHT22;9677;50.656;13.064;2022-11-27T05:24:56;5.10;64.10
19090;DHT22;9677;50.656;13.064;2022-11-27T05:27:26;4.80;64.00
19090;DHT22;9677;50.656;13.064;2022-11-27T05:29:55;4.80;64.10
19090;DHT22;9677;50.656;13.064;2022-11-27T05:32:23;4.80;64.10
19090;DHT22;9677;50.656;13.064;2022-11-27T05:34:53;5.00;64.30
19090;DHT22;9677;50.656;13.064;2022-11-27T05:37:22;4.80;64.10
19090;DHT22;9677;50.656;13.064;2022-11-27T05:39:51;4.70;64.10
19090;DHT22;9677;50.656;13.064;2022-11-27T05:42:19;4.80;64.10
19090;DHT22;9677;50.656;13.064;2022-11-27T05:44:49;4.70;64.00
19090;DHT22;9677;50.656;13.064;2022-11-27T05:47:24;4.70;64.10
19090;DHT22;9677;50.656;13.064;2022-11-27T05:49:52;4.90;64.20
19090;DHT22;9677;50.656;13.064;2022-11-27T05:52:21;4.70;64.10
19090;DHT22;9677;50.656;13.064;2022-11-27T05:54:50;4.70;64.10
19090;DHT22;9677;50.656;13.064;2022-11-27T05:57:18;4.70;64.10
19090;DHT22;9677;50.656;13.064;2022-11-27T05:59:48;4.70;64.00
19090;DHT22;9677;50.656;13.064;2022-11-27T06:02:17;4.70;64.10
19090;DHT22;9677;50.656;13.064;2022-11-27T06:04:52;4.80;64.10
19090;DHT22;9677;50.656;13.064;2022-11-27T06:07:21;4.60;64.00
19090;DHT22;9677;50.656;13.064;2022-11-27T06:09:49;4.60;64.10
19090;DHT22;9677;50.656;13.064;2022-11-27T06:12:18;4.80;64.20
19090;DHT22;9677;50.656;13.064;2022-11-27T06:14:46;4.60;64.10
19090;DHT22;9677;50.656;13.064;2022-11-27T06:17:16;4.60;64.10
19090;DHT22;9677;50.656;13.064;2022-11-27T06:19:45;4.60;64.20
19090;DHT22;9677;50.656;13.064;2022-11-27T06:22:14;4.50;64.10
19090;DHT22;9677;50.656;13.064;2022-11-27T06:24:42;4.60;64.10
19090;DHT22;9677;50.656;13.064;2022-11-27T06:27:11;4.50;64.00
19090;DHT22;9677;50.656;13.064;2022-11-27T06:29:40;4.70;64.10
19090;DHT22;9677;50.656;13.064;2022-11-27T06:32:10;4.50;63.90
19090;DHT22;9677;50.656;13.064;2022-11-27T06:34:38;4.50;63.90
19090;DHT22;9677;50.656;13.064;2022-11-27T06:37:07;4.60;64.00
19090;DHT22;9677;50.656;13.064;2022-11-27T06:39:39;4.60;64.10
19090;DHT22;9677;50.656;13.064;2022-11-27T06:42:08;4.40;64.00
19090;DHT22;9677;50.656;13.064;2022-11-27T06:44:36;4.40;64.00
19090;DHT22;9677;50.656;13.064;2022-11-27T06:47:05;4.60;64.10
19090;DHT22;9677;50.656;13.064;2022-11-27T06:49:35;4.40;64.00
19090;DHT22;9677;50.656;13.064;2022-11-27T06:52:04;4.60;64.00
19090;DHT22;9677;50.656;13.064;2022-11-27T06:54:33;4.40;63.90
19090;DHT22;9677;50.656;13.064;2022-11-27T06:57:01;4.70;64.10
19090;DHT22;9677;50.656;13.064;2022-11-27T06:59:30;4.30;63.90
19090;DHT22;9677;50.656;13.064;2022-11-27T07:01:59;4.50;64.10
19090;DHT22;9677;50.656;13.064;2022-11-27T07:04:27;4.30;63.90
19090;DHT22;9677;50.656;13.064;2022-11-27T07:06:57;4.50;64.10
19090;DHT22;9677;50.656;13.064;2022-11-27T07:09:26;4.40;64.10
19090;DHT22;9677;50.656;13.064;2022-11-27T07:11:55;4.60;64.20
19090;DHT22;9677;50.656;13.064;2022-11-27T07:14:23;4.60;64.30
19090;DHT22;9677;50.656;13.064;2022-11-27T07:16:52;4.50;64.20
19090;DHT22;9677;50.656;13.064;2022-11-27T07:19:20;4.30;64.20
19090;DHT22;9677;50.656;13.064;2022-11-27T07:21:49;4.20;64.10
19090;DHT22;9677;50.656;13.064;2022-11-27T07:24:19;4.40;64.30
19090;DHT22;9677;50.656;13.064;2022-11-27T07:26:48;4.70;64.60
19090;DHT22;9677;50.656;13.064;2022-11-27T07:29:16;4.20;64.10
19090;DHT22;9677;50.656;13.064;2022-11-27T07:31:45;4.10;64.10
19090;DHT22;9677;50.656;13.064;2022-11-27T07:34:16;4.10;64.10
19090;DHT22;9677;50.656;13.064;2022-11-27T07:36:47;4.50;64.50
19090;DHT22;9677;50.656;13.064;2022-11-27T07:39:16;4.30;64.40
19090;DHT22;9677;50.656;13.064;2022-11-27T07:42:06;4.10;64.30
19090;DHT22;9677;50.656;13.064;2022-11-27T07:44:55;4.10;64.30
19090;DHT22;9677;50.656;13.064;2022-11-27T07:47:23;4.10;64.40
19090;DHT22;9677;50.656;13.064;2022-11-27T07:49:52;4.10;64.40
19090;DHT22;9677;50.656;13.064;2022-11-27T07:52:24;4.20;64.40
19090;DHT22;9677;50.656;13.064;2022-11-27T07:54:53;4.40;64.70
19090;DHT22;9677;50.656;13.064;2022-11-27T07:57:23;4.30;64.60
19090;DHT22;9677;50.656;13.064;2022-11-27T07:59:51;4.10;64.50
19090;DHT22;9677;50.656;13.064;2022-11-27T08:02:20;4.10;64.50
19090;DHT22;9677;50.656;13.064;2022-11-27T08:04:49;4.20;64.60
19090;DHT22;9677;50.656;13.064;2022-11-27T08:07:17;4.20;64.70
19090;DHT22;9677;50.656;13.064;2022-11-27T08:09:46;4.20;64.70
19090;DHT22;9677;50.656;13.064;2022-11-27T08:12:15;4.20;64.70
19090;DHT22;9677;50.656;13.064;2022-11-27T08:14:45;4.20;64.70
19090;DHT22;9677;50.656;13.064;2022-11-27T08:17:13;4.70;65.00
19090;DHT22;9677;50.656;13.064;2022-11-27T08:19:42;4.20;64.70
19090;DHT22;9677;50.656;13.064;2022-11-27T08:22:11;4.20;64.70
19090;DHT22;9677;50.656;13.064;2022-11-27T08:24:40;4.20;64.70
19090;DHT22;9677;50.656;13.064;2022-11-27T08:27:09;4.50;64.90
19090;DHT22;9677;50.656;13.064;2022-11-27T08:29:38;4.20;64.70
19090;DHT22;9677;50.656;13.064;2022-11-27T08:32:09;4.50;65.00
19090;DHT22;9677;50.656;13.064;2022-11-27T08:34:38;4.20;64.80
19090;DHT22;9677;50.656;13.064;2022-11-27T08:37:07;4.30;64.90
19090;DHT22;9677;50.656;13.064;2022-11-27T08:39:35;4.30;64.90
19090;DHT22;9677;50.656;13.064;2022-11-27T08:42:04;4.40;65.00
19090;DHT22;9677;50.656;13.064;2022-11-27T08:44:33;4.30;64.90
19090;DHT22;9677;50.656;13.064;2022-11-27T08:47:01;4.40;65.00
19090;DHT22;9677;50.656;13.064;2022-11-27T08:49:31;4.30;65.00
19090;DHT22;9677;50.656;13.064;2022-11-27T08:52:00;4.50;65.10
19090;DHT22;9677;50.656;13.064;2022-11-27T08:54:28;4.30;65.00
19090;DHT22;9677;50.656;13.064;2022-11-27T08:56:57;4.30;64.90
19090;DHT22;9677;50.656;13.064;2022-11-27T08:59:26;4.40;65.00
19090;DHT22;9677;50.656;13.064;2022-11-27T09:01:54;4.40;65.00
19090;DHT22;9677;50.656;13.064;2022-11-27T09:04:23;4.40;65.00
19090;DHT22;9677;50.656;13.064;2022-11-27T09:06:53;4.40;65.00
19090;DHT22;9677;50.656;13.064;2022-11-27T09:09:24;4.40;65.10
19090;DHT22;9677;50.656;13.064;2022-11-27T09:11:54;4.40;65.20
19090;DHT22;9677;50.656;13.064;2022-11-27T09:14:22;4.40;65.30
19090;DHT22;9677;50.656;13.064;2022-11-27T09:16:51;4.40;65.30
19090;DHT22;9677;50.656;13.064;2022-11-27T09:19:20;4.60;65.50
19090;DHT22;9677;50.656;13.064;2022-11-27T09:21:48;4.50;65.50
19090;DHT22;9677;50.656;13.064;2022-11-27T09:24:19;4.50;65.60
19090;DHT22;9677;50.656;13.064;2022-11-27T09:26:47;4.60;65.70
19090;DHT22;9677;50.656;13.064;2022-11-27T09:29:16;4.60;65.70
19090;DHT22;9677;50.656;13.064;2022-11-27T09:31:45;4.70;65.80
19090;DHT22;9677;50.656;13.064;2022-11-27T09:34:14;4.70;65.80
19090;DHT22;9677;50.656;13.064;2022-11-27T09:36:42;4.90;66.00
19090;DHT22;9677;50.656;13.064;2022-11-27T09:39:11;4.80;65.90
19090;DHT22;9677;50.656;13.064;2022-11-27T09:41:45;4.80;66.00
19090;DHT22;9677;50.656;13.064;2022-11-27T09:44:28;4.90;66.10
19090;DHT22;9677;50.656;13.064;2022-11-27T09:47:04;4.90;66.10
19090;DHT22;9677;50.656;13.064;2022-11-27T09:49:40;5.00;66.10
19090;DHT22;9677;50.656;13.064;2022-11-27T09:52:19;4.90;66.10
19090;DHT22;9677;50.656;13.064;2022-11-27T09:54:55;5.00;66.10
19090;DHT22;9677;50.656;13.064;2022-11-27T09:57:32;5.30;66.30
19090;DHT22;9677;50.656;13.064;2022-11-27T10:00:06;5.10;66.20
19090;DHT22;9677;50.656;13.064;2022-11-27T10:02:40;5.10;66.10
19090;DHT22;9677;50.656;13.064;2022-11-27T10:05:13;5.20;66.20
19090;DHT22;9677;50.656;13.064;2022-11-27T10:08:14;5.20;66.20
19090;DHT22;9677;50.656;13.064;2022-11-27T10:11:02;5.30;66.40
19090;DHT22;9677;50.656;13.064;2022-11-27T10:13:49;5.30;66.40
19090;DHT22;9677;50.656;13.064;2022-11-27T10:16:30;5.40;66.50
19090;DHT22;9677;50.656;13.064;2022-11-27T10:19:20;5.40;66.50
19090;DHT22;9677;50.656;13.064;2022-11-27T10:21:58;5.50;66.60
19090;DHT22;9677;50.656;13.064;2022-11-27T10:24:35;5.60;66.70
19090;DHT22;9677;50.656;13.064;2022-11-27T10:27:14;5.60;66.70
19090;DHT22;9677;50.656;13.064;2022-11-27T10:29:49;5.70;66.80
19090;DHT22;9677;50.656;13.064;2022-11-27T10:32:23;5.80;66.80
19090;DHT22;9677;50.656;13.064;2022-11-27T10:35:15;5.80;66.80
19090;DHT22;9677;50.656;13.064;2022-11-27T10:37:48;5.90;66.80
19090;DHT22;9677;50.656;13.064;2022-11-27T10:40:22;6.00;66.80
19090;DHT22;9677;50.656;13.064;2022-11-27T10:42:57;6.00;66.90
19090;DHT22;9677;50.656;13.064;2022-11-27T10:45:38;6.10;66.90
19090;DHT22;9677;50.656;13.064;2022-11-27T10:48:11;6.20;66.90
19090;DHT22;9677;50.656;13.064;2022-11-27T10:50:41;6.30;66.90
19090;DHT22;9677;50.656;13.064;2022-11-27T10:53:16;6.30;66.90
19090;DHT22;9677;50.656;13.064;2022-11-27T10:56:20;6.40;67.00
19090;DHT22;9677;50.656;13.064;2022-11-27T10:59:04;6.50;67.20
19090;DHT22;9677;50.656;13.064;2022-11-27T11:01:43;6.60;67.20
19090;DHT22;9677;50.656;13.064;2022-11-27T11:04:18;6.70;67.40
19090;DHT22;9677;50.656;13.064;2022-11-27T11:07:23;6.80;67.50
19090;DHT22;9677;50.656;13.064;2022-11-27T11:09:53;6.80;67.60
19090;DHT22;9677;50.656;13.064;2022-11-27T11:12:22;7.00;67.60
19090;DHT22;9677;50.656;13.064;2022-11-27T11:14:52;7.10;67.80
19090;DHT22;9677;50.656;13.064;2022-11-27T11:17:25;7.20;67.80
19090;DHT22;9677;50.656;13.064;2022-11-27T11:19:54;7.40;67.80
19090;DHT22;9677;50.656;13.064;2022-11-27T11:22:23;7.40;67.70
19090;DHT22;9677;50.656;13.064;2022-11-27T11:24:52;7.60;67.80
19090;DHT22;9677;50.656;13.064;2022-11-27T11:27:25;7.70;67.70
19090;DHT22;9677;50.656;13.064;2022-11-27T11:29:56;7.80;67.60
19090;DHT22;9677;50.656;13.064;2022-11-27T11:32:30;7.90;67.40
19090;DHT22;9677;50.656;13.064;2022-11-27T11:35:02;8.00;67.30
19090;DHT22;9677;50.656;13.064;2022-11-27T11:37:35;8.10;67.20
19090;DHT22;9677;50.656;13.064;2022-11-27T11:40:21;8.30;67.00
19090;DHT22;9677;50.656;13.064;2022-11-27T11:42:53;8.40;66.80
19090;DHT22;9677;50.656;13.064;2022-11-27T11:45:24;8.40;66.60
19090;DHT22;9677;50.656;13.064;2022-11-27T11:48:01;8.60;66.50
19090;DHT22;9677;50.656;13.064;2022-11-27T11:50:34;8.60;66.30
19090;DHT22;9677;50.656;13.064;2022-11-27T11:53:09;8.70;66.00
19090;DHT22;9677;50.656;13.064;2022-11-27T11:55:44;8.80;65.80
19090;DHT22;9677;50.656;13.064;2022-11-27T11:58:38;8.90;65.60
19090;DHT22;9677;50.656;13.064;2022-11-27T12:01:46;8.90;66.00
19090;DHT22;9677;50.656;13.064;2022-11-27T12:07:35;9.10;64.80
19090;DHT22;9677;50.656;13.064;2022-11-27T12:10:21;9.10;64.60
19090;DHT22;9677;50.656;13.064;2022-11-27T12:13:03;9.20;64.60
19090;DHT22;9677;50.656;13.064;2022-11-27T12:15:39;9.20;64.40
19090;DHT22;9677;50.656;13.064;2022-11-27T12:18:17;9.30;64.40
19090;DHT22;9677;50.656;13.064;2022-11-27T12:21:03;9.30;64.20
19090;DHT22;9677;50.656;13.064;2022-11-27T12:23:57;9.40;64.10
19090;DHT22;9677;50.656;13.064;2022-11-27T12:26:54;9.40;63.90
19090;DHT22;9677;50.656;13.064;2022-11-27T12:29:40;9.40;63.90
19090;DHT22;9677;50.656;13.064;2022-11-27T12:32:48;9.50;63.70
19090;DHT22;9677;50.656;13.064;2022-11-27T12:35:33;9.50;63.50
19090;DHT22;9677;50.656;13.064;2022-11-27T12:38:19;9.50;63.60
19090;DHT22;9677;50.656;13.064;2022-11-27T12:41:11;9.50;63.20
19090;DHT22;9677;50.656;13.064;2022-11-27T12:43:54;9.60;63.20
19090;DHT22;9677;50.656;13.064;2022-11-27T12:46:32;9.60;63.30
19090;DHT22;9677;50.656;13.064;2022-11-27T12:49:11;9.60;63.30
19090;DHT22;9677;50.656;13.064;2022-11-27T12:51:45;9.60;63.20
19090;DHT22;9677;50.656;13.064;2022-11-27T12:54:21;9.60;63.20
19090;DHT22;9677;50.656;13.064;2022-11-27T12:56:54;9.70;63.10
19090;DHT22;9677;50.656;13.064;2022-11-27T12:59:27;9.70;63.20
19090;DHT22;9677;50.656;13.064;2022-11-27T13:02:04;9.70;63.20
19090;DHT22;9677;50.656;13.064;2022-11-27T13:04:55;9.70;63.10
19090;DHT22;9677;50.656;13.064;2022-11-27T13:07:27;9.80;63.10
19090;DHT22;9677;50.656;13.064;2022-11-27T13:10:18;9.80;63.00
19090;DHT22;9677;50.656;13.064;2022-11-27T13:12:57;9.80;62.80
19090;DHT22;9677;50.656;13.064;2022-11-27T13:15:33;9.80;62.70
19090;DHT22;9677;50.656;13.064;2022-11-27T13:18:13;9.90;62.70
19090;DHT22;9677;50.656;13.064;2022-11-27T13:20:45;9.90;62.60
19090;DHT22;9677;50.656;13.064;2022-11-27T13:23:19;9.90;62.60
19090;DHT22;9677;50.656;13.064;2022-11-27T13:25:51;9.90;62.50
19090;DHT22;9677;50.656;13.064;2022-11-27T13:28:25;9.90;62.40
19090;DHT22;9677;50.656;13.064;2022-11-27T13:30:59;9.90;62.20
19090;DHT22;9677;50.656;13.064;2022-11-27T13:33:36;9.90;62.20
19090;DHT22;9677;50.656;13.064;2022-11-27T13:36:07;9.90;62.00
19090;DHT22;9677;50.656;13.064;2022-11-27T13:38:51;9.90;62.10
19090;DHT22;9677;50.656;13.064;2022-11-27T13:41:34;9.90;62.10
19090;DHT22;9677;50.656;13.064;2022-11-27T13:44:21;9.90;61.80
19090;DHT22;9677;50.656;13.064;2022-11-27T13:46:53;9.90;61.80
19090;DHT22;9677;50.656;13.064;2022-11-27T13:49:26;9.90;61.80
19090;DHT22;9677;50.656;13.064;2022-11-27T13:52:04;9.90;61.80
19090;DHT22;9677;50.656;13.064;2022-11-27T13:54:35;9.80;61.60
19090;DHT22;9677;50.656;13.064;2022-11-27T13:57:12;9.80;61.60
19090;DHT22;9677;50.656;13.064;2022-11-27T13:59:54;9.80;61.60
19090;DHT22;9677;50.656;13.064;2022-11-27T14:02:25;9.80;61.60
19090;DHT22;9677;50.656;13.064;2022-11-27T14:04:54;9.80;61.70
19090;DHT22;9677;50.656;13.064;2022-11-27T14:07:23;9.80;61.70
19090;DHT22;9677;50.656;13.064;2022-11-27T14:10:08;9.70;61.60
19090;DHT22;9677;50.656;13.064;2022-11-27T14:12:49;9.70;61.50
19090;DHT22;9677;50.656;13.064;2022-11-27T14:15:21;9.70;61.50
19090;DHT22;9677;50.656;13.064;2022-11-27T14:18:02;9.70;61.50
19090;DHT22;9677;50.656;13.064;2022-11-27T14:20:35;9.70;61.50
19090;DHT22;9677;50.656;13.064;2022-11-27T14:23:12;9.60;61.40
19090;DHT22;9677;50.656;13.064;2022-11-27T14:25:41;9.60;61.30
19090;DHT22;9677;50.656;13.064;2022-11-27T14:28:14;9.60;61.30
19090;DHT22;9677;50.656;13.064;2022-11-27T14:30:46;9.50;61.20
19090;DHT22;9677;50.656;13.064;2022-11-27T14:33:18;9.50;61.30
19090;DHT22;9677;50.656;13.064;2022-11-27T14:35:49;9.50;61.20
19090;DHT22;9677;50.656;13.064;2022-11-27T14:38:18;9.40;61.20
19090;DHT22;9677;50.656;13.064;2022-11-27T14:40:48;9.40;61.20
19090;DHT22;9677;50.656;13.064;2022-11-27T14:43:21;9.40;61.20
19090;DHT22;9677;50.656;13.064;2022-11-27T14:45:54;9.30;61.20
19090;DHT22;9677;50.656;13.064;2022-11-27T14:48:26;9.30;61.30
19090;DHT22;9677;50.656;13.064;2022-11-27T14:50:57;9.20;61.20
19090;DHT22;9677;50.656;13.064;2022-11-27T14:53:27;9.20;61.20
19090;DHT22;9677;50.656;13.064;2022-11-27T14:55:57;9.20;61.30
19090;DHT22;9677;50.656;13.064;2022-11-27T14:58:28;9.10;61.20
19090;DHT22;9677;50.656;13.064;2022-11-27T15:01:00;9.10;61.30
19090;DHT22;9677;50.656;13.064;2022-11-27T15:03:30;9.10;61.30
19090;DHT22;9677;50.656;13.064;2022-11-27T15:06:00;9.00;61.30
19090;DHT22;9677;50.656;13.064;2022-11-27T15:08:33;9.00;61.40
19090;DHT22;9677;50.656;13.064;2022-11-27T15:11:04;8.90;61.30
19090;DHT22;9677;50.656;13.064;2022-11-27T15:13:36;8.90;61.30
19090;DHT22;9677;50.656;13.064;2022-11-27T15:16:12;8.80;61.40
19090;DHT22;9677;50.656;13.064;2022-11-27T15:18:47;8.80;61.40
19090;DHT22;9677;50.656;13.064;2022-11-27T15:21:19;8.80;61.40
19090;DHT22;9677;50.656;13.064;2022-11-27T15:23:52;8.70;61.40
19090;DHT22;9677;50.656;13.064;2022-11-27T15:26:31;8.70;61.40
19090;DHT22;9677;50.656;13.064;2022-11-27T15:29:02;8.60;61.40
19090;DHT22;9677;50.656;13.064;2022-11-27T15:31:32;8.60;61.50
19090;DHT22;9677;50.656;13.064;2022-11-27T15:34:04;8.50;61.50
19090;DHT22;9677;50.656;13.064;2022-11-27T15:36:37;8.50;61.50
19090;DHT22;9677;50.656;13.064;2022-11-27T15:39:26;8.50;61.60
19090;DHT22;9677;50.656;13.064;2022-11-27T15:42:00;8.40;61.50
19090;DHT22;9677;50.656;13.064;2022-11-27T15:44:32;8.40;61.60
19090;DHT22;9677;50.656;13.064;2022-11-27T15:47:02;8.30;61.60
19090;DHT22;9677;50.656;13.064;2022-11-27T15:49:32;8.30;61.70
19090;DHT22;9677;50.656;13.064;2022-11-27T15:52:01;8.30;61.70
19090;DHT22;9677;50.656;13.064;2022-11-27T15:54:29;8.30;61.70
19090;DHT22;9677;50.656;13.064;2022-11-27T15:56:58;8.20;61.60
19090;DHT22;9677;50.656;13.064;2022-11-27T15:59:27;8.20;61.70
19090;DHT22;9677;50.656;13.064;2022-11-27T16:01:57;8.10;61.70
19090;DHT22;9677;50.656;13.064;2022-11-27T16:04:25;8.10;61.70
19090;DHT22;9677;50.656;13.064;2022-11-27T16:06:54;8.10;61.80
19090;DHT22;9677;50.656;13.064;2022-11-27T16:09:23;8.00;61.80
19090;DHT22;9677;50.656;13.064;2022-11-27T16:11:52;8.00;61.90
19090;DHT22;9677;50.656;13.064;2022-11-27T16:14:20;8.00;61.90
19090;DHT22;9677;50.656;13.064;2022-11-27T16:16:49;7.90;61.80
19090;DHT22;9677;50.656;13.064;2022-11-27T16:19:19;7.90;61.80
19090;DHT22;9677;50.656;13.064;2022-11-27T16:21:48;7.90;61.90
19090;DHT22;9677;50.656;13.064;2022-11-27T16:24:16;7.90;61.90
19090;DHT22;9677;50.656;13.064;2022-11-27T16:26:45;7.80;61.90